Time,TemperatureF,DewpointF,PressureIn,WindDirection,WindDirectionDegrees,WindSpeedMPH,WindSpeedGustMPH,Humidity,HourlyPrecipIn,Conditions,Clouds,dailyrainin,SoftwareType,DateUTC
2013-01-25 00:05:00,59.1,56.0,30.12,WSW,256,0.0,0.0,89,0.00,,,0.00,weatherlink.com 1.10,2013-01-25 08:05:00,
2013-01-25 00:20:00,58.9,56.0,30.11,WSW,256,0.0,0.0,90,0.00,,,0.00,weatherlink.com 1.10,2013-01-25 08:20:00,
2013-01-25 00:35:00,58.6,56.0,30.11,WSW,257,0.0,0.0,91,0.00,,,0.00,weatherlink.com 1.10,2013-01-25 08:35:00,
2013-01-25 00:50:00,58.4,56.0,30.11,WSW,256,0.0,0.0,91,0.00,,,0.00,weatherlink.com 1.10,2013-01-25 08:50:00,
2013-01-25 01:05:00,58.2,56.0,30.12,WSW,256,0.0,0.0,92,0.00,,,0.00,weatherlink.com 1.10,2013-01-25 09:05:00,
2013-01-25 01:20:00,58.2,56.0,30.13,WSW,256,0.0,0.0,93,0.00,,,0.00,weatherlink.com 1.10,2013-01-25 09:20:00,
2013-01-25 01:35:00,58.2,56.0,30.13,WSW,256,0.0,0.0,93,0.00,,,0.00,weatherlink.com 1.10,2013-01-25 09:35:00,
2013-01-25 01:51:00,58.1,56.0,30.12,WSW,256,0.0,0.0,93,0.01,,,0.01,weatherlink.com 1.10,2013-01-25 09:51:00,
2013-01-25 02:06:00,58.0,56.0,30.11,WSW,256,0.0,0.0,94,0.01,,,0.01,weatherlink.com 1.10,2013-01-25 10:06:00,
2013-01-25 02:21:00,58.0,57.0,30.10,WSW,257,0.0,1.0,95,0.01,,,0.01,weatherlink.com 1.10,2013-01-25 10:21:00,
2013-01-25 02:36:00,58.1,57.0,30.10,North,8,0.0,0.0,95,0.03,,,0.03,weatherlink.com 1.10,2013-01-25 10:36:00,
2013-01-25 02:51:00,58.0,57.0,30.09,North,8,0.0,1.0,95,0.02,,,0.03,weatherlink.com 1.10,2013-01-25 10:51:00,
2013-01-25 03:06:00,58.0,57.0,30.09,North,8,0.0,0.0,95,0.02,,,0.03,weatherlink.com 1.10,2013-01-25 11:06:00,
2013-01-25 03:21:00,58.6,57.0,30.08,North,8,0.0,1.0,94,0.02,,,0.03,weatherlink.com 1.10,2013-01-25 11:21:00,
2013-01-25 03:36:00,58.5,57.0,30.07,North,8,0.0,0.0,94,0.00,,,0.03,weatherlink.com 1.10,2013-01-25 11:36:00,
2013-01-25 03:51:00,58.3,57.0,30.06,North,7,0.0,0.0,95,0.00,,,0.03,weatherlink.com 1.10,2013-01-25 11:51:00,
2013-01-25 04:06:00,58.3,57.0,30.06,North,8,0.0,0.0,95,0.01,,,0.04,weatherlink.com 1.10,2013-01-25 12:06:00,
2013-01-25 04:21:00,58.3,57.0,30.06,North,8,0.0,0.0,95,0.01,,,0.04,weatherlink.com 1.10,2013-01-25 12:21:00,
2013-01-25 04:36:00,58.3,57.0,30.07,NNW,334,0.0,0.0,96,0.01,,,0.04,weatherlink.com 1.10,2013-01-25 12:36:00,
2013-01-25 04:51:00,58.7,57.0,30.07,North,359,0.0,3.0,93,0.02,,,0.05,weatherlink.com 1.10,2013-01-25 12:51:00,
2013-01-25 05:06:00,59.2,57.0,30.07,North,9,0.0,0.0,93,0.01,,,0.05,weatherlink.com 1.10,2013-01-25 13:06:00,
2013-01-25 05:21:00,59.0,57.0,30.07,North,8,0.0,1.0,94,0.02,,,0.06,weatherlink.com 1.10,2013-01-25 13:21:00,
2013-01-25 05:37:00,58.8,57.0,30.07,North,8,0.0,0.0,95,0.02,,,0.06,weatherlink.com 1.10,2013-01-25 13:37:00,
2013-01-25 05:51:00,58.8,57.0,30.08,North,8,0.0,1.0,95,0.01,,,0.06,weatherlink.com 1.10,2013-01-25 13:51:00,
2013-01-25 06:06:00,58.5,57.0,30.09,North,8,0.0,1.0,95,0.01,,,0.06,weatherlink.com 1.10,2013-01-25 14:06:00,
2013-01-25 06:21:00,58.2,57.0,30.12,WNW,290,1.0,4.0,95,0.00,,,0.06,weatherlink.com 1.10,2013-01-25 14:21:00,
2013-01-25 06:36:00,58.0,57.0,30.12,WNW,303,0.0,0.0,96,0.02,,,0.08,weatherlink.com 1.10,2013-01-25 14:36:00,
2013-01-25 06:51:00,58.0,57.0,30.11,NW,304,0.0,1.0,96,0.06,,,0.12,weatherlink.com 1.10,2013-01-25 14:51:00,
2013-01-25 07:06:00,58.0,57.0,30.12,NE,41,0.0,1.0,96,0.11,,,0.17,weatherlink.com 1.10,2013-01-25 15:06:00,
2013-01-25 07:21:00,58.0,57.0,30.12,NNE,16,0.0,0.0,97,0.12,,,0.18,weatherlink.com 1.10,2013-01-25 15:21:00,
2013-01-25 07:36:00,58.4,57.0,30.11,North,5,0.0,2.0,96,0.10,,,0.18,weatherlink.com 1.10,2013-01-25 15:36:00,
2013-01-25 07:51:00,58.9,58.0,30.12,ENE,68,0.0,3.0,95,0.07,,,0.19,weatherlink.com 1.10,2013-01-25 15:51:00,
2013-01-25 08:06:00,59.0,58.0,30.12,ENE,68,0.0,1.0,96,0.02,,,0.19,weatherlink.com 1.10,2013-01-25 16:06:00,
2013-01-25 08:21:00,59.1,58.0,30.13,NE,42,0.0,1.0,96,0.01,,,0.19,weatherlink.com 1.10,2013-01-25 16:21:00,
2013-01-25 08:36:00,59.3,58.0,30.13,NE,41,0.0,2.0,94,0.02,,,0.20,weatherlink.com 1.10,2013-01-25 16:36:00,
2013-01-25 08:51:00,59.6,58.0,30.13,North,360,0.0,0.0,94,0.02,,,0.21,weatherlink.com 1.10,2013-01-25 16:51:00,
2013-01-25 09:06:00,59.6,58.0,30.13,North,360,0.0,2.0,94,0.02,,,0.21,weatherlink.com 1.10,2013-01-25 17:06:00,
2013-01-25 09:36:00,60.2,58.0,30.13,NNW,339,0.0,1.0,92,0.01,,,0.21,weatherlink.com 1.10,2013-01-25 17:36:00,
2013-01-25 09:51:00,60.7,58.0,30.13,North,11,0.0,0.0,92,0.00,,,0.21,weatherlink.com 1.10,2013-01-25 17:51:00,
2013-01-25 10:07:00,61.2,58.0,30.13,NNE,26,0.0,1.0,90,0.01,,,0.22,weatherlink.com 1.10,2013-01-25 18:07:00,
2013-01-25 10:21:00,61.4,59.0,30.12,NNE,28,0.0,1.0,91,0.01,,,0.22,weatherlink.com 1.10,2013-01-25 18:21:00,
2013-01-25 10:36:00,61.8,60.0,30.12,West,274,0.0,0.0,92,0.01,,,0.22,weatherlink.com 1.10,2013-01-25 18:36:00,
2013-01-25 10:51:00,62.2,59.0,30.12,West,274,0.0,0.0,90,0.01,,,0.22,weatherlink.com 1.10,2013-01-25 18:51:00,
2013-01-25 11:06:00,62.8,60.0,30.11,NE,44,0.0,0.0,91,0.00,,,0.22,weatherlink.com 1.10,2013-01-25 19:06:00,
2013-01-25 11:21:00,63.1,61.0,30.10,NE,44,0.0,0.0,91,0.00,,,0.22,weatherlink.com 1.10,2013-01-25 19:21:00,
2013-01-25 11:37:00,63.2,61.0,30.09,NE,46,0.0,0.0,91,0.01,,,0.23,weatherlink.com 1.10,2013-01-25 19:37:00,
2013-01-25 11:51:00,63.1,61.0,30.08,NE,44,0.0,0.0,92,0.02,,,0.24,weatherlink.com 1.10,2013-01-25 19:51:00,
2013-01-25 12:06:00,63.3,61.0,30.07,NE,47,0.0,0.0,92,0.02,,,0.24,weatherlink.com 1.10,2013-01-25 20:06:00,
2013-01-25 12:21:00,63.7,61.0,30.06,NE,46,0.0,0.0,92,0.03,,,0.25,weatherlink.com 1.10,2013-01-25 20:21:00,
2013-01-25 12:36:00,63.8,62.0,30.05,NE,47,0.0,0.0,92,0.02,,,0.25,weatherlink.com 1.10,2013-01-25 20:36:00,
2013-01-25 12:52:00,64.1,62.0,30.04,NE,46,0.0,0.0,92,0.01,,,0.25,weatherlink.com 1.10,2013-01-25 20:52:00,
2013-01-25 13:07:00,64.2,62.0,30.02,NE,46,0.0,0.0,92,0.01,,,0.25,weatherlink.com 1.10,2013-01-25 21:07:00,
2013-01-25 13:22:00,64.6,63.0,30.02,NE,46,0.0,0.0,93,0.00,,,0.25,weatherlink.com 1.10,2013-01-25 21:22:00,
2013-01-25 13:37:00,64.7,62.0,30.02,SSE,167,0.0,1.0,92,0.00,,,0.25,weatherlink.com 1.10,2013-01-25 21:37:00,
2013-01-25 14:07:00,64.0,62.0,30.03,SSE,166,0.0,0.0,92,0.01,,,0.26,weatherlink.com 1.10,2013-01-25 22:07:00,
2013-01-25 14:22:00,63.7,61.0,30.03,SSE,166,0.0,0.0,92,0.02,,,0.27,weatherlink.com 1.10,2013-01-25 22:22:00,
2013-01-25 14:37:00,63.0,61.0,30.03,SSE,167,0.0,0.0,92,0.03,,,0.28,weatherlink.com 1.10,2013-01-25 22:37:00,
2013-01-25 14:52:00,62.5,60.0,30.02,SSE,167,0.0,0.0,92,0.04,,,0.29,weatherlink.com 1.10,2013-01-25 22:52:00,
2013-01-25 15:07:00,62.2,60.0,30.02,SSE,167,0.0,1.0,92,0.04,,,0.30,weatherlink.com 1.10,2013-01-25 23:07:00,
2013-01-25 15:22:00,61.8,60.0,30.01,SSE,167,0.0,0.0,93,0.03,,,0.30,weatherlink.com 1.10,2013-01-25 23:22:00,
2013-01-25 15:37:00,61.7,60.0,29.99,SSE,167,0.0,0.0,94,0.03,,,0.31,weatherlink.com 1.10,2013-01-25 23:37:00,
2013-01-25 15:52:00,61.6,60.0,29.98,SSE,167,0.0,0.0,95,0.02,,,0.31,weatherlink.com 1.10,2013-01-25 23:52:00,
2013-01-25 16:07:00,61.7,61.0,29.98,SSE,167,0.0,0.0,96,0.01,,,0.31,weatherlink.com 1.10,2013-01-26 00:07:00,
2013-01-25 16:22:00,61.8,61.0,29.98,SSE,167,0.0,0.0,96,0.02,,,0.32,weatherlink.com 1.10,2013-01-26 00:22:00,
2013-01-25 16:37:00,61.7,61.0,29.98,SSE,167,0.0,0.0,96,0.01,,,0.32,weatherlink.com 1.10,2013-01-26 00:37:00,
2013-01-25 16:52:00,61.2,60.0,29.98,SSW,199,0.0,0.0,95,0.02,,,0.33,weatherlink.com 1.10,2013-01-26 00:52:00,
2013-01-25 17:07:00,61.0,60.0,29.98,SSW,199,0.0,0.0,96,0.02,,,0.33,weatherlink.com 1.10,2013-01-26 01:07:00,
2013-01-25 17:22:00,60.9,60.0,29.99,SSW,198,0.0,0.0,96,0.02,,,0.34,weatherlink.com 1.10,2013-01-26 01:22:00,
2013-01-25 17:37:00,60.8,60.0,29.99,SSW,198,0.0,0.0,96,0.02,,,0.34,weatherlink.com 1.10,2013-01-26 01:37:00,
2013-01-25 17:53:00,60.7,60.0,29.99,SSW,198,0.0,0.0,97,0.02,,,0.35,weatherlink.com 1.10,2013-01-26 01:53:00,
2013-01-25 18:07:00,60.5,60.0,29.99,SSW,199,0.0,0.0,97,0.02,,,0.35,weatherlink.com 1.10,2013-01-26 02:07:00,
2013-01-25 18:22:00,60.4,60.0,30.01,SSW,198,0.0,0.0,97,0.01,,,0.35,weatherlink.com 1.10,2013-01-26 02:22:00,
2013-01-25 18:37:00,60.3,60.0,30.00,SSW,198,0.0,0.0,97,0.02,,,0.36,weatherlink.com 1.10,2013-01-26 02:37:00,
2013-01-25 18:52:00,60.3,60.0,30.00,SSW,199,0.0,0.0,97,0.01,,,0.36,weatherlink.com 1.10,2013-01-26 02:52:00,
2013-01-25 19:07:00,60.4,60.0,30.01,SSW,198,0.0,0.0,97,0.01,,,0.36,weatherlink.com 1.10,2013-01-26 03:07:00,
2013-01-25 19:22:00,60.4,60.0,30.00,SSW,198,0.0,0.0,97,0.01,,,0.36,weatherlink.com 1.10,2013-01-26 03:22:00,
2013-01-25 19:37:00,60.3,60.0,30.00,SSW,199,0.0,0.0,97,0.00,,,0.36,weatherlink.com 1.10,2013-01-26 03:37:00,
2013-01-25 19:52:00,60.2,59.0,29.99,SSW,199,0.0,0.0,97,0.00,,,0.36,weatherlink.com 1.10,2013-01-26 03:52:00,
2013-01-25 20:07:00,60.3,60.0,29.97,SSW,201,0.0,0.0,97,0.00,,,0.36,weatherlink.com 1.10,2013-01-26 04:07:00,
2013-01-25 20:24:00,60.2,59.0,29.98,SSW,208,0.0,0.0,97,0.00,,,0.36,weatherlink.com 1.10,2013-01-26 04:24:00,
2013-01-25 20:37:00,60.2,60.0,30.00,SSE,167,0.0,3.0,98,0.00,,,0.36,weatherlink.com 1.10,2013-01-26 04:37:00,
2013-01-25 20:52:00,60.3,60.0,30.01,SSE,156,0.0,1.0,98,0.01,,,0.37,weatherlink.com 1.10,2013-01-26 04:52:00,
2013-01-25 21:07:00,60.3,60.0,30.00,SSE,158,0.0,1.0,98,0.05,,,0.41,weatherlink.com 1.10,2013-01-26 05:07:00,
2013-01-25 21:22:00,60.3,60.0,29.98,SSE,158,0.0,0.0,98,0.08,,,0.44,weatherlink.com 1.10,2013-01-26 05:22:00,
2013-01-25 21:37:00,60.1,59.0,29.97,SSE,158,0.0,1.0,97,0.08,,,0.44,weatherlink.com 1.10,2013-01-26 05:37:00,
2013-01-25 21:52:00,59.9,59.0,29.98,North,357,0.0,2.0,98,0.07,,,0.44,weatherlink.com 1.10,2013-01-26 05:52:00,
2013-01-25 22:07:00,59.9,59.0,30.00,North,357,0.0,0.0,98,0.02,,,0.44,weatherlink.com 1.10,2013-01-26 06:07:00,
2013-01-25 22:23:00,59.9,59.0,30.00,North,357,0.0,0.0,98,0.00,,,0.44,weatherlink.com 1.10,2013-01-26 06:23:00,
2013-01-25 22:38:00,59.9,59.0,29.99,ENE,70,1.0,2.0,98,0.01,,,0.45,weatherlink.com 1.10,2013-01-26 06:38:00,
2013-01-25 22:52:00,59.7,59.0,29.99,NNE,33,0.0,1.0,98,0.01,,,0.45,weatherlink.com 1.10,2013-01-26 06:52:00,
2013-01-25 23:07:00,59.6,59.0,29.98,NNE,33,0.0,0.0,98,0.01,,,0.45,weatherlink.com 1.10,2013-01-26 07:07:00,
2013-01-25 23:23:00,59.5,59.0,29.98,NNE,33,0.0,1.0,98,0.01,,,0.45,weatherlink.com 1.10,2013-01-26 07:23:00,
2013-01-25 23:37:00,59.4,59.0,29.97,NNE,33,0.0,1.0,98,0.00,,,0.45,weatherlink.com 1.10,2013-01-26 07:37:00,
2013-01-25 23:52:00,59.3,59.0,29.97,NNE,33,0.0,0.0,98,0.00,,,0.45,weatherlink.com 1.10,2013-01-26 07:52:00,